Time;durP1;ratioP1;P1;durP2;ratioP2;P2;SDS_P1;SDS_P2;PMS_P1;PMS_P2;Temp;Humidity;BMP_temperature;BMP_pressure;BME280_temperature;BME280_humidity;BME280_pressure;Samples;Min_cycle;Max_cycle;Signal;HPM_P1;HPM_P2
2022/08/25 00:00:46;;;;;;;1.80;1.50;;;;;;;;;;7399077;19;20002;-76
2022/08/25 00:03:12;;;;;;;2.78;1.52;;;;;;;;;;7395585;19;20020;-77
2022/08/25 00:05:38;;;;;;;3.40;1.90;;;;;;;;;;7398218;19;20006;-76
2022/08/25 00:08:05;;;;;;;2.15;1.80;;;;;;;;;;7398799;19;19994;-76
2022/08/25 00:10:32;;;;;;;2.15;1.73;;;;;;;;;;7394559;19;20003;-76
2022/08/25 00:12:58;;;;;;;2.10;1.50;;;;;;;;;;7395605;19;20062;-77
2022/08/25 00:15:23;;;;;;;2.25;1.20;;;;;;;;;;7393799;19;20015;-76
2022/08/25 00:17:50;;;;;;;2.72;1.20;;;;;;;;;;7391173;19;20372;-76
2022/08/25 00:20:16;;;;;;;3.05;1.52;;;;;;;;;;7397207;19;20434;-76
2022/08/25 00:22:41;;;;;;;1.75;1.50;;;;;;;;;;7396758;19;20031;-77
2022/08/25 00:25:07;;;;;;;1.55;1.23;;;;;;;;;;7398614;19;20014;-76
2022/08/25 00:27:33;;;;;;;2.35;1.90;;;;;;;;;;7398913;19;20013;-76
2022/08/25 00:29:59;;;;;;;3.88;1.85;;;;;;;;;;7398528;19;20018;-76
2022/08/25 00:32:24;;;;;;;1.88;1.50;;;;;;;;;;7400305;19;20066;-76
2022/08/25 00:34:50;;;;;;;2.30;1.77;;;;;;;;;;7399528;19;20018;-77
2022/08/25 00:37:15;;;;;;;4.57;2.00;;;;;;;;;;7400054;19;19999;-76
2022/08/25 00:39:41;;;;;;;2.20;1.95;;;;;;;;;;7396594;19;20015;-76
2022/08/25 00:42:08;;;;;;;2.10;1.67;;;;;;;;;;7401728;19;20375;-76
2022/08/25 00:44:34;;;;;;;1.95;1.60;;;;;;;;;;7398557;19;20053;-76
2022/08/25 00:47:01;;;;;;;3.00;2.22;;;;;;;;;;7398670;19;20018;-76
2022/08/25 00:49:38;;;;;;;2.30;1.60;;;;;;;;;;7397903;19;20118;-76
2022/08/25 00:52:21;;;;;;;4.10;1.90;;;;;;;;;;7401077;19;20418;-76
2022/08/25 00:54:53;;;;;;;2.33;2.00;;;;;;;;;;7395732;19;20017;-76
2022/08/25 00:57:35;;;;;;;1.98;1.77;;;;;;;;;;7398436;19;20002;-76
2022/08/25 01:00:04;;;;;;;4.22;1.90;;;;;;;;;;7399342;19;20077;-76
2022/08/25 01:02:29;;;;;;;1.45;1.33;;;;;;;;;;7397365;19;20006;-76
2022/08/25 01:04:55;;;;;;;1.48;1.33;;;;;;;;;;7395463;19;20006;-76
2022/08/25 01:07:22;;;;;;;1.80;1.27;;;;;;;;;;7397227;19;20019;-76
2022/08/25 01:09:50;;;;;;;2.35;1.60;;;;;;;;;;7398410;19;20011;-76
2022/08/25 01:12:16;;;;;;;4.03;2.03;;;;;;;;;;7399385;19;20355;-77
2022/08/25 01:14:45;;;;;;;2.95;1.80;;;;;;;;;;7399818;19;20002;-76
2022/08/25 01:17:12;;;;;;;2.30;1.83;;;;;;;;;;7398303;19;20335;-76
2022/08/25 01:19:37;;;;;;;4.47;2.25;;;;;;;;;;7395871;19;20018;-76
2022/08/25 01:22:03;;;;;;;2.40;1.90;;;;;;;;;;7398803;19;20018;-76
2022/08/25 01:24:43;;;;;;;2.00;1.65;;;;;;;;;;7397055;19;19999;-76
2022/08/25 01:27:09;;;;;;;2.75;2.20;;;;;;;;;;7397568;19;20108;-76
2022/08/25 01:29:35;;;;;;;2.22;1.98;;;;;;;;;;7398808;19;20030;-76
2022/08/25 01:32:04;;;;;;;3.53;2.28;;;;;;;;;;7398149;19;20035;-76
2022/08/25 01:34:32;;;;;;;2.78;1.80;;;;;;;;;;7395530;19;20043;-76
2022/08/25 01:36:58;;;;;;;1.80;1.55;;;;;;;;;;7397302;19;20023;-76
2022/08/25 01:39:25;;;;;;;2.28;1.67;;;;;;;;;;7397583;19;19994;-77
2022/08/25 01:42:07;;;;;;;1.75;1.60;;;;;;;;;;7396562;19;20003;-76
2022/08/25 01:44:34;;;;;;;1.90;1.70;;;;;;;;;;7396380;19;20046;-76
2022/08/25 01:47:00;;;;;;;1.42;1.33;;;;;;;;;;7395508;19;20023;-77
2022/08/25 01:49:26;;;;;;;2.42;1.70;;;;;;;;;;7397739;19;20000;-76
2022/08/25 01:52:11;;;;;;;2.40;1.85;;;;;;;;;;7397881;19;20006;-76
2022/08/25 01:54:37;;;;;;;1.80;1.48;;;;;;;;;;7396295;19;20006;-76
2022/08/25 01:57:02;;;;;;;3.47;1.83;;;;;;;;;;7395747;19;20415;-76
2022/08/25 01:59:28;;;;;;;1.80;1.70;;;;;;;;;;7398903;19;19994;-76
2022/08/25 02:01:53;;;;;;;2.38;1.83;;;;;;;;;;7396456;19;20040;-76
2022/08/25 02:04:19;;;;;;;2.78;1.77;;;;;;;;;;7395090;19;20324;-76
2022/08/25 02:06:44;;;;;;;2.65;2.00;;;;;;;;;;7396554;19;20040;-76
2022/08/25 02:09:13;;;;;;;1.95;1.55;;;;;;;;;;7396358;19;19999;-76
2022/08/25 02:11:41;;;;;;;1.88;1.67;;;;;;;;;;7397122;19;20021;-76
2022/08/25 02:14:08;;;;;;;4.32;1.77;;;;;;;;;;7395062;19;19998;-76
2022/08/25 02:16:36;;;;;;;3.05;2.08;;;;;;;;;;7395789;19;20094;-76
2022/08/25 02:19:03;;;;;;;2.97;1.90;;;;;;;;;;7395690;19;20442;-76
2022/08/25 02:21:29;;;;;;;2.53;1.73;;;;;;;;;;7395065;19;20006;-76
2022/08/25 02:23:55;;;;;;;2.72;1.55;;;;;;;;;;7395200;19;20009;-77
2022/08/25 02:26:21;;;;;;;2.50;1.35;;;;;;;;;;7389821;19;20014;-77
2022/08/25 02:28:49;;;;;;;2.13;1.70;;;;;;;;;;7395728;19;20017;-76
2022/08/25 02:31:16;;;;;;;2.47;2.10;;;;;;;;;;7397492;19;19998;-77
2022/08/25 02:33:42;;;;;;;3.00;2.17;;;;;;;;;;7396178;19;20006;-76
2022/08/25 02:36:09;;;;;;;2.85;2.33;;;;;;;;;;7396706;19;19999;-76
2022/08/25 02:38:35;;;;;;;2.80;2.00;;;;;;;;;;7394349;19;20015;-76
2022/08/25 02:41:06;;;;;;;4.07;2.80;;;;;;;;;;7397695;19;20015;-76
2022/08/25 02:43:32;;;;;;;3.03;2.15;;;;;;;;;;7395878;19;20019;-76
2022/08/25 02:45:58;;;;;;;2.90;1.92;;;;;;;;;;7397398;19;20347;-76
2022/08/25 02:48:24;;;;;;;2.90;2.10;;;;;;;;;;7395529;19;20005;-77
2022/08/25 02:50:51;;;;;;;4.38;2.30;;;;;;;;;;7396012;19;20078;-76
2022/08/25 02:53:18;;;;;;;3.53;2.63;;;;;;;;;;7394449;19;20034;-76
2022/08/25 02:55:44;;;;;;;3.33;2.45;;;;;;;;;;7396765;19;20063;-76
2022/08/25 02:58:09;;;;;;;3.05;2.33;;;;;;;;;;7394810;19;20038;-76
2022/08/25 03:00:36;;;;;;;3.63;2.53;;;;;;;;;;7395050;19;19999;-76
2022/08/25 03:03:02;;;;;;;3.08;2.22;;;;;;;;;;7393612;19;20010;-76
2022/08/25 03:05:27;;;;;;;2.90;2.38;;;;;;;;;;7394835;19;20035;-77
2022/08/25 03:07:53;;;;;;;2.30;1.98;;;;;;;;;;7393250;19;20004;-77
2022/08/25 03:10:19;;;;;;;3.45;2.13;;;;;;;;;;7395056;19;19995;-76
2022/08/25 03:12:45;;;;;;;2.92;2.33;;;;;;;;;;7395321;19;20007;-76
2022/08/25 03:15:15;;;;;;;3.88;2.30;;;;;;;;;;7396475;19;20063;-76
2022/08/25 03:17:41;;;;;;;2.10;1.80;;;;;;;;;;7386999;19;20011;-76
2022/08/25 03:20:07;;;;;;;4.43;2.40;;;;;;;;;;7389997;19;20011;-76
2022/08/25 03:22:32;;;;;;;8.40;2.92;;;;;;;;;;7396047;19;19998;-76
2022/08/25 03:26:52;;;;;;;6.13;3.10;;;;;;;;;;7393617;19;20021;-76
2022/08/25 03:27:43;;;;;;;6.25;2.97;;;;;;;;;;7397561;19;20015;-76
2022/08/25 03:30:09;;;;;;;3.20;2.33;;;;;;;;;;7401145;19;20314;-76
2022/08/25 03:32:35;;;;;;;2.30;1.90;;;;;;;;;;7401589;19;20010;-76
2022/08/25 03:35:00;;;;;;;3.65;2.58;;;;;;;;;;7401943;19;20007;-77
2022/08/25 03:37:26;;;;;;;5.38;2.88;;;;;;;;;;7398949;19;20055;-76
2022/08/25 03:39:51;;;;;;;8.40;2.78;;;;;;;;;;7400116;19;20007;-76
2022/08/25 03:42:17;;;;;;;6.30;2.78;;;;;;;;;;7403882;19;20495;-76
2022/08/25 03:44:42;;;;;;;3.55;2.30;;;;;;;;;;7402358;19;20009;-77
2022/08/25 03:47:07;;;;;;;3.17;1.90;;;;;;;;;;7398949;19;20518;-75
2022/08/25 03:49:33;;;;;;;3.53;2.35;;;;;;;;;;7400591;19;20466;-76
2022/08/25 03:51:58;;;;;;;3.13;2.30;;;;;;;;;;7403629;19;20118;-76
2022/08/25 03:54:24;;;;;;;5.55;2.70;;;;;;;;;;7400683;19;20070;-76
2022/08/25 03:56:50;;;;;;;3.58;2.45;;;;;;;;;;7399095;19;20439;-77
2022/08/25 03:59:16;;;;;;;3.00;2.25;;;;;;;;;;7396692;19;20035;-75
2022/08/25 04:01:43;;;;;;;3.35;2.40;;;;;;;;;;7398263;19;20023;-73
2022/08/25 04:04:11;;;;;;;3.63;2.60;;;;;;;;;;7399212;19;20025;-74
2022/08/25 04:06:38;;;;;;;2.90;2.33;;;;;;;;;;7400200;19;20013;-74
2022/08/25 04:09:04;;;;;;;4.88;2.83;;;;;;;;;;7399112;19;20014;-74
2022/08/25 04:11:29;;;;;;;4.13;2.28;;;;;;;;;;7401717;19;20023;-74
2022/08/25 04:13:56;;;;;;;3.75;2.58;;;;;;;;;;7396809;19;20022;-74
2022/08/25 04:16:24;;;;;;;2.20;1.67;;;;;;;;;;7398217;19;20048;-74
2022/08/25 04:18:51;;;;;;;3.13;2.20;;;;;;;;;;7398560;19;20014;-74
2022/08/25 04:21:19;;;;;;;4.07;2.85;;;;;;;;;;7401933;19;20007;-74
2022/08/25 04:23:47;;;;;;;4.60;2.72;;;;;;;;;;7398308;19;20338;-74
2022/08/25 04:26:22;;;;;;;4.13;3.03;;;;;;;;;;7399036;19;20007;-74
2022/08/25 04:28:48;;;;;;;3.92;2.60;;;;;;;;;;7395211;19;20332;-74
2022/08/25 04:31:15;;;;;;;6.75;2.97;;;;;;;;;;7397798;19;20094;-73
2022/08/25 04:33:40;;;;;;;2.70;1.80;;;;;;;;;;7398354;19;20002;-75
2022/08/25 04:36:08;;;;;;;4.63;2.60;;;;;;;;;;7396802;19;20435;-75
2022/08/25 04:38:33;;;;;;;5.80;2.85;;;;;;;;;;7397402;19;20437;-75
2022/08/25 04:41:02;;;;;;;5.20;2.72;;;;;;;;;;7398302;19;19999;-75
2022/08/25 04:43:29;;;;;;;4.18;2.28;;;;;;;;;;7398037;19;20002;-77
2022/08/25 04:45:54;;;;;;;3.45;3.05;;;;;;;;;;7397863;19;20337;-77
2022/08/25 04:48:20;;;;;;;5.85;2.70;;;;;;;;;;7400154;19;20014;-77
2022/08/25 04:50:45;;;;;;;5.07;2.58;;;;;;;;;;7401901;19;19994;-77
2022/08/25 04:53:11;;;;;;;5.82;2.60;;;;;;;;;;7401873;19;20007;-77
2022/08/25 04:55:41;;;;;;;4.93;2.72;;;;;;;;;;7400858;19;20066;-77
2022/08/25 04:58:06;;;;;;;3.65;3.05;;;;;;;;;;7400220;19;20003;-77
2022/08/25 05:00:34;;;;;;;6.65;2.60;;;;;;;;;;7400001;19;20014;-76
2022/08/25 05:03:00;;;;;;;4.18;2.80;;;;;;;;;;7402001;19;19998;-76
2022/08/25 05:05:25;;;;;;;5.47;2.72;;;;;;;;;;7400418;19;20002;-76
2022/08/25 05:07:50;;;;;;;4.50;2.30;;;;;;;;;;7395417;19;20107;-77
2022/08/25 05:10:16;;;;;;;3.72;2.53;;;;;;;;;;7400028;19;20014;-76
2022/08/25 05:12:41;;;;;;;4.88;2.90;;;;;;;;;;7398932;19;20014;-76
2022/08/25 05:17:51;;;;;;;4.97;3.22;;;;;;;;;;7397575;19;20029;-75
2022/08/25 05:20:16;;;;;;;4.40;2.67;;;;;;;;;;7400029;19;20006;-75
2022/08/25 05:22:46;;;;;;;5.90;2.65;;;;;;;;;;7400668;19;19999;-75
2022/08/25 05:25:13;;;;;;;5.88;2.90;;;;;;;;;;7399334;19;20506;-78
2022/08/25 05:27:38;;;;;;;3.25;2.33;;;;;;;;;;7395855;19;20010;-75
2022/08/25 05:30:04;;;;;;;2.42;1.90;;;;;;;;;;7397911;19;20017;-74
2022/08/25 05:32:30;;;;;;;4.00;3.03;;;;;;;;;;7398720;19;20065;-74
2022/08/25 05:34:55;;;;;;;4.68;2.67;;;;;;;;;;7397194;19;20404;-75
2022/08/25 05:37:20;;;;;;;5.13;2.58;;;;;;;;;;7394282;19;20154;-75
2022/08/25 05:39:47;;;;;;;2.58;2.10;;;;;;;;;;7394993;19;20007;-74
2022/08/25 05:42:12;;;;;;;4.15;2.63;;;;;;;;;;7397735;19;20481;-75
2022/08/25 05:44:38;;;;;;;4.20;2.67;;;;;;;;;;7394559;19;20138;-75
2022/08/25 05:47:03;;;;;;;4.20;2.75;;;;;;;;;;7396878;19;19998;-75
2022/08/25 05:49:29;;;;;;;4.05;2.80;;;;;;;;;;7393027;19;20011;-75
2022/08/25 05:51:54;;;;;;;5.90;3.58;;;;;;;;;;7396062;19;20474;-75
2022/08/25 05:54:19;;;;;;;5.15;2.53;;;;;;;;;;7394772;19;20013;-74
2022/08/25 05:56:45;;;;;;;3.75;2.70;;;;;;;;;;7395714;19;20011;-75
2022/08/25 05:59:10;;;;;;;4.93;2.95;;;;;;;;;;7397389;19;20014;-76
2022/08/25 06:04:21;;;;;;;11.00;6.72;;;;;;;;;;7393695;19;20017;-76
2022/08/25 06:06:47;;;;;;;6.57;4.38;;;;;;;;;;7394303;19;20037;-75
2022/08/25 06:09:13;;;;;;;3.63;2.50;;;;;;;;;;7394624;19;20014;-75
2022/08/25 06:11:39;;;;;;;6.57;3.70;;;;;;;;;;7393461;19;20015;-75
2022/08/25 06:14:06;;;;;;;4.47;3.20;;;;;;;;;;7395552;19;20010;-75
2022/08/25 06:16:31;;;;;;;5.32;3.50;;;;;;;;;;7393958;19;20011;-76
2022/08/25 06:19:00;;;;;;;7.05;4.03;;;;;;;;;;7393805;19;20011;-75
2022/08/25 06:21:25;;;;;;;5.20;3.47;;;;;;;;;;7395076;19;20338;-75
2022/08/25 06:23:51;;;;;;;6.13;3.47;;;;;;;;;;7391713;19;20034;-75
2022/08/25 06:26:16;;;;;;;3.75;3.17;;;;;;;;;;7395948;19;19998;-75
2022/08/25 06:28:42;;;;;;;6.88;4.85;;;;;;;;;;7394823;19;20006;-75
2022/08/25 06:31:08;;;;;;;6.57;4.55;;;;;;;;;;7398272;19;20039;-76
2022/08/25 06:33:33;;;;;;;5.40;3.65;;;;;;;;;;7391857;19;20002;-75
2022/08/25 06:35:59;;;;;;;6.00;4.18;;;;;;;;;;7394266;19;20018;-76
2022/08/25 06:38:25;;;;;;;6.57;3.92;;;;;;;;;;7392996;19;20014;-75
2022/08/25 06:40:51;;;;;;;7.10;4.07;;;;;;;;;;7395147;19;20011;-76
2022/08/25 06:43:18;;;;;;;7.00;4.75;;;;;;;;;;7395603;19;19999;-76
2022/08/25 06:45:43;;;;;;;7.60;4.85;;;;;;;;;;7395337;19;20021;-76
2022/08/25 06:48:09;;;;;;;6.18;4.05;;;;;;;;;;7392543;19;20007;-75
2022/08/25 06:50:38;;;;;;;5.22;3.45;;;;;;;;;;7396055;19;20334;-75
2022/08/25 06:53:04;;;;;;;5.18;3.60;;;;;;;;;;7394418;19;20021;-75
2022/08/25 06:55:29;;;;;;;6.90;4.05;;;;;;;;;;7394530;19;20046;-77
2022/08/25 06:57:54;;;;;;;5.55;4.00;;;;;;;;;;7392195;19;20011;-76
2022/08/25 07:00:20;;;;;;;6.40;3.90;;;;;;;;;;7392807;19;20014;-76
2022/08/25 07:02:46;;;;;;;6.45;4.05;;;;;;;;;;7399774;19;20082;-75
2022/08/25 07:05:11;;;;;;;4.78;4.03;;;;;;;;;;7402939;19;20018;-76
2022/08/25 07:07:37;;;;;;;10.38;4.35;;;;;;;;;;7398916;19;20039;-76
2022/08/25 07:10:04;;;;;;;5.95;3.85;;;;;;;;;;7402895;19;20018;-76
2022/08/25 07:12:29;;;;;;;5.85;3.85;;;;;;;;;;7399020;19;20013;-77
2022/08/25 07:14:55;;;;;;;5.03;3.88;;;;;;;;;;7403635;19;20010;-76
2022/08/25 07:17:22;;;;;;;5.97;4.20;;;;;;;;;;7396705;19;20014;-76
2022/08/25 07:19:48;;;;;;;6.68;4.47;;;;;;;;;;7400482;19;20003;-76
2022/08/25 07:22:13;;;;;;;6.07;4.13;;;;;;;;;;7404272;19;20023;-75
2022/08/25 07:24:38;;;;;;;6.50;3.65;;;;;;;;;;7398635;19;20009;-75
2022/08/25 07:27:04;;;;;;;8.07;4.18;;;;;;;;;;7397479;19;20013;-77
2022/08/25 07:29:31;;;;;;;7.00;3.92;;;;;;;;;;7396130;19;20006;-76
2022/08/25 07:31:57;;;;;;;5.05;3.70;;;;;;;;;;7395663;19;20849;-76
2022/08/25 07:37:06;;;;;;;7.38;3.88;;;;;;;;;;7399018;19;20016;-76
2022/08/25 07:39:32;;;;;;;5.25;3.70;;;;;;;;;;7401005;19;20014;-76
2022/08/25 07:41:58;;;;;;;5.47;3.38;;;;;;;;;;7402193;19;20010;-76
2022/08/25 07:44:25;;;;;;;4.43;3.40;;;;;;;;;;7399888;19;20370;-77
2022/08/25 07:46:51;;;;;;;5.25;2.78;;;;;;;;;;7399620;19;20007;-76
2022/08/25 07:49:18;;;;;;;6.70;4.53;;;;;;;;;;7397753;19;20032;-78
2022/08/25 07:51:45;;;;;;;5.63;4.05;;;;;;;;;;7401008;19;20017;-76
2022/08/25 07:54:10;;;;;;;6.20;4.10;;;;;;;;;;7401018;19;20474;-75
2022/08/25 07:56:35;;;;;;;5.95;2.95;;;;;;;;;;7398126;19;20006;-76
2022/08/25 07:59:01;;;;;;;5.10;3.55;;;;;;;;;;7402124;19;19999;-76
2022/08/25 08:01:26;;;;;;;11.52;3.60;;;;;;;;;;7397991;19;19991;-76
2022/08/25 08:03:52;;;;;;;7.20;3.80;;;;;;;;;;7396826;19;20062;-76
2022/08/25 08:06:21;;;;;;;5.95;3.53;;;;;;;;;;7399768;19;20470;-76
2022/08/25 08:08:49;;;;;;;4.78;3.83;;;;;;;;;;7397265;19;20006;-76
2022/08/25 08:11:16;;;;;;;10.85;4.35;;;;;;;;;;7398967;19;20043;-76
2022/08/25 08:13:42;;;;;;;5.03;4.03;;;;;;;;;;7394875;19;20659;-75
2022/08/25 08:16:12;;;;;;;6.32;3.55;;;;;;;;;;7399285;19;19998;-76
2022/08/25 08:18:37;;;;;;;5.75;3.70;;;;;;;;;;7394890;19;20010;-77
2022/08/25 08:21:03;;;;;;;4.25;3.17;;;;;;;;;;7399567;19;19991;-75
2022/08/25 08:23:29;;;;;;;5.70;3.85;;;;;;;;;;7394792;19;20457;-75
2022/08/25 08:25:55;;;;;;;4.95;3.78;;;;;;;;;;7395814;19;20403;-75
2022/08/25 08:28:21;;;;;;;4.60;3.60;;;;;;;;;;7400493;19;20013;-75
2022/08/25 08:30:47;;;;;;;6.43;3.38;;;;;;;;;;7399318;19;20006;-75
2022/08/25 08:33:13;;;;;;;5.15;3.63;;;;;;;;;;7399014;19;20094;-75
2022/08/25 08:35:41;;;;;;;6.70;3.50;;;;;;;;;;7397514;19;20532;-75
2022/08/25 08:38:07;;;;;;;5.32;3.17;;;;;;;;;;7398596;19;20019;-75
2022/08/25 08:42:15;;;;;;;4.13;3.50;;;;;;;;;;7395011;19;20002;-76
2022/08/25 08:43:32;;;;;;;5.80;3.50;;;;;;;;;;7396156;19;20878;-76
2022/08/25 08:45:58;;;;;;;6.55;3.55;;;;;;;;;;7397255;19;20023;-75
2022/08/25 08:48:48;;;;;;;6.15;3.60;;;;;;;;;;7394666;19;20015;-75
2022/08/25 08:51:24;;;;;;;5.13;3.40;;;;;;;;;;7399108;19;19999;-75
2022/08/25 08:54:07;;;;;;;4.38;3.08;;;;;;;;;;7398510;19;19998;-76
2022/08/25 08:56:40;;;;;;;4.93;3.28;;;;;;;;;;7396295;19;20441;-77
2022/08/25 08:59:13;;;;;;;5.28;3.85;;;;;;;;;;7396466;19;20327;-74
2022/08/25 09:01:44;;;;;;;5.82;3.53;;;;;;;;;;7392605;19;20003;-75
2022/08/25 09:04:21;;;;;;;5.95;3.55;;;;;;;;;;7394104;19;20010;-76
2022/08/25 09:06:48;;;;;;;5.55;3.47;;;;;;;;;;7396206;19;20030;-75
2022/08/25 09:09:29;;;;;;;5.65;3.60;;;;;;;;;;7393898;19;20120;-75
2022/08/25 09:12:00;;;;;;;4.15;3.28;;;;;;;;;;7398754;19;19998;-75
2022/08/25 09:14:44;;;;;;;4.30;3.20;;;;;;;;;;7394421;19;19994;-75
2022/08/25 09:17:37;;;;;;;4.90;3.67;;;;;;;;;;7395351;19;20395;-75
2022/08/25 09:20:24;;;;;;;6.03;3.35;;;;;;;;;;7396432;19;19999;-75
2022/08/25 09:22:49;;;;;;;5.22;3.63;;;;;;;;;;7393085;19;20014;-76
2022/08/25 09:25:34;;;;;;;6.82;3.75;;;;;;;;;;7395518;19;20013;-75
2022/08/25 09:28:11;;;;;;;5.18;3.20;;;;;;;;;;7392773;19;19999;-76
2022/08/25 09:30:47;;;;;;;4.40;3.10;;;;;;;;;;7396762;19;20002;-75
2022/08/25 09:33:19;;;;;;;6.50;3.70;;;;;;;;;;7393681;19;20010;-75
2022/08/25 09:35:46;;;;;;;7.07;3.70;;;;;;;;;;7393494;19;19999;-75
2022/08/25 09:38:12;;;;;;;5.20;3.55;;;;;;;;;;7396898;19;20131;-75
2022/08/25 09:40:40;;;;;;;7.45;3.50;;;;;;;;;;7392714;19;20532;-75
2022/08/25 09:43:31;;;;;;;7.25;3.70;;;;;;;;;;7393033;19;20002;-75
2022/08/25 09:45:58;;;;;;;4.43;3.35;;;;;;;;;;7396148;19;20051;-75
2022/08/25 09:48:27;;;;;;;4.88;3.72;;;;;;;;;;7395787;19;20062;-75
2022/08/25 09:51:00;;;;;;;3.58;3.15;;;;;;;;;;7393374;19;20774;-75
2022/08/25 09:53:27;;;;;;;10.93;6.15;;;;;;;;;;7395563;19;20058;-75
2022/08/25 09:55:59;;;;;;;6.03;3.78;;;;;;;;;;7392746;19;19998;-75
2022/08/25 09:58:24;;;;;;;4.80;3.67;;;;;;;;;;7393520;19;20014;-74
2022/08/25 10:01:03;;;;;;;5.30;3.88;;;;;;;;;;7397097;19;20017;-77
2022/08/25 10:03:29;;;;;;;4.40;3.50;;;;;;;;;;7394109;19;19995;-75
2022/08/25 10:05:56;;;;;;;4.30;3.30;;;;;;;;;;7394770;19;20099;-75
2022/08/25 10:08:35;;;;;;;5.35;3.90;;;;;;;;;;7393758;19;19998;-75
2022/08/25 10:11:07;;;;;;;4.90;3.33;;;;;;;;;;7394648;19;20086;-75
2022/08/25 10:13:45;;;;;;;7.05;3.50;;;;;;;;;;7396011;19;20487;-75
2022/08/25 10:16:32;;;;;;;4.72;3.40;;;;;;;;;;7395917;19;20026;-75
2022/08/25 10:19:24;;;;;;;3.30;3.00;;;;;;;;;;7393834;19;20331;-75
2022/08/25 10:22:20;;;;;;;6.07;3.20;;;;;;;;;;7396434;19;20014;-76
2022/08/25 10:24:47;;;;;;;6.97;3.75;;;;;;;;;;7396336;19;20007;-75
2022/08/25 10:27:22;;;;;;;3.78;3.35;;;;;;;;;;7394436;19;20078;-75
2022/08/25 10:29:50;;;;;;;7.70;3.55;;;;;;;;;;7392781;19;19995;-73
2022/08/25 10:32:49;;;;;;;4.32;3.10;;;;;;;;;;7393500;19;20042;-75
2022/08/25 10:35:21;;;;;;;6.07;3.13;;;;;;;;;;7390814;19;20100;-76
2022/08/25 10:38:05;;;;;;;5.20;3.17;;;;;;;;;;7389260;19;20480;-75
2022/08/25 10:40:59;;;;;;;6.43;3.70;;;;;;;;;;7395976;19;19994;-75
2022/08/25 10:43:53;;;;;;;3.65;2.83;;;;;;;;;;7392766;19;19991;-75
2022/08/25 10:46:35;;;;;;;5.35;3.47;;;;;;;;;;7393297;19;20355;-75
2022/08/25 10:49:17;;;;;;;5.22;3.70;;;;;;;;;;7395294;19;20437;-76
2022/08/25 10:51:48;;;;;;;3.88;3.08;;;;;;;;;;7390738;19;20011;-75
2022/08/25 10:54:38;;;;;;;4.90;3.95;;;;;;;;;;7396930;19;20005;-75
2022/08/25 10:57:10;;;;;;;8.77;5.78;;;;;;;;;;7391036;19;20002;-75
2022/08/25 10:59:56;;;;;;;10.68;6.07;;;;;;;;;;7393388;19;20010;-75
2022/08/25 11:02:34;;;;;;;8.85;6.63;;;;;;;;;;7392125;19;20002;-76
2022/08/25 11:05:08;;;;;;;8.88;6.82;;;;;;;;;;7393593;19;20010;-75
2022/08/25 11:07:44;;;;;;;11.25;7.05;;;;;;;;;;7392222;19;20557;-79
2022/08/25 11:10:16;;;;;;;11.13;7.43;;;;;;;;;;7395822;19;20086;-75
2022/08/25 11:12:51;;;;;;;13.50;6.78;;;;;;;;;;7394097;19;20078;-74
2022/08/25 11:15:25;;;;;;;12.85;6.72;;;;;;;;;;7394752;19;20074;-75
2022/08/25 11:17:53;;;;;;;10.45;6.50;;;;;;;;;;7391435;19;20010;-79
2022/08/25 11:20:27;;;;;;;10.45;7.20;;;;;;;;;;7394078;19;20486;-75
2022/08/25 11:23:16;;;;;;;16.73;9.55;;;;;;;;;;7391536;19;20100;-75
2022/08/25 11:25:44;;;;;;;11.55;7.28;;;;;;;;;;7390114;19;19998;-75
2022/08/25 11:28:10;;;;;;;12.07;8.25;;;;;;;;;;7391409;19;20008;-74
2022/08/25 11:30:37;;;;;;;12.82;8.00;;;;;;;;;;7391238;19;20018;-74
2022/08/25 11:33:03;;;;;;;12.02;7.25;;;;;;;;;;7394178;19;20010;-74
2022/08/25 11:35:41;;;;;;;12.70;6.75;;;;;;;;;;7393586;19;19998;-75
2022/08/25 11:38:25;;;;;;;11.50;6.05;;;;;;;;;;7391176;19;20033;-76
2022/08/25 11:41:12;;;;;;;12.68;6.00;;;;;;;;;;7392229;19;20552;-75
2022/08/25 11:44:04;;;;;;;10.20;5.22;;;;;;;;;;7390390;19;20066;-75
2022/08/25 11:46:59;;;;;;;7.05;4.05;;;;;;;;;;7393300;19;20032;-77
2022/08/25 11:49:47;;;;;;;6.95;4.00;;;;;;;;;;7397077;19;20058;-74
2022/08/25 11:52:31;;;;;;;10.45;4.40;;;;;;;;;;7401726;19;20376;-75
2022/08/25 11:55:17;;;;;;;8.80;4.75;;;;;;;;;;7396678;19;20491;-74
2022/08/25 11:57:45;;;;;;;6.22;3.97;;;;;;;;;;7396764;19;20022;-76
2022/08/25 12:00:28;;;;;;;8.18;3.80;;;;;;;;;;7400841;19;20007;-76
2022/08/25 12:02:53;;;;;;;6.95;4.13;;;;;;;;;;7396406;19;19995;-75
2022/08/25 12:05:20;;;;;;;6.70;4.15;;;;;;;;;;7399161;19;19995;-75
2022/08/25 12:10:53;;;;;;;7.68;3.63;;;;;;;;;;7398279;19;20013;-76
2022/08/25 12:13:47;;;;;;;5.20;3.83;;;;;;;;;;7400349;19;20014;-75
2022/08/25 12:16:34;;;;;;;9.55;3.95;;;;;;;;;;7401473;19;20028;-75
2022/08/25 12:19:21;;;;;;;6.28;3.60;;;;;;;;;;7396934;19;20488;-75
2022/08/25 12:21:47;;;;;;;6.13;3.92;;;;;;;;;;7397798;19;20374;-75
2022/08/25 12:24:14;;;;;;;10.00;3.65;;;;;;;;;;7398741;19;20006;-75
2022/08/25 12:27:00;;;;;;;19.45;3.90;;;;;;;;;;7395489;19;20006;-76
2022/08/25 12:29:39;;;;;;;10.68;3.50;;;;;;;;;;7397509;19;20011;-77
2022/08/25 12:32:16;;;;;;;9.23;3.75;;;;;;;;;;7395958;19;20062;-74
2022/08/25 12:35:12;;;;;;;6.30;3.25;;;;;;;;;;7398499;19;20018;-74
2022/08/25 12:38:15;;;;;;;6.05;3.40;;;;;;;;;;7393797;19;20041;-75
2022/08/25 12:40:44;;;;;;;9.80;3.63;;;;;;;;;;7395825;19;19995;-75
2022/08/25 12:43:18;;;;;;;7.95;3.30;;;;;;;;;;7395401;19;19994;-74
2022/08/25 12:45:49;;;;;;;6.90;4.03;;;;;;;;;;7395735;19;20473;-75
2022/08/25 12:48:26;;;;;;;10.57;3.47;;;;;;;;;;7395835;19;20014;-75
2022/08/25 12:51:02;;;;;;;6.70;3.47;;;;;;;;;;7400199;19;20630;-76
2022/08/25 12:53:27;;;;;;;4.85;3.00;;;;;;;;;;7397137;19;20015;-75
2022/08/25 12:56:07;;;;;;;6.35;3.13;;;;;;;;;;7398703;19;20812;-76
2022/08/25 12:59:02;;;;;;;7.82;3.42;;;;;;;;;;7393954;19;20011;-75
2022/08/25 13:01:35;;;;;;;7.32;3.45;;;;;;;;;;7398501;19;19990;-76
2022/08/25 13:04:07;;;;;;;8.32;3.45;;;;;;;;;;7395189;19;20466;-76
2022/08/25 13:06:56;;;;;;;5.20;2.67;;;;;;;;;;7394463;19;19998;-75
2022/08/25 13:09:37;;;;;;;5.80;3.03;;;;;;;;;;7394584;19;19991;-76
2022/08/25 13:12:15;;;;;;;5.30;3.72;;;;;;;;;;7396380;19;20036;-75
2022/08/25 13:14:43;;;;;;;6.68;3.33;;;;;;;;;;7398091;19;19990;-76
2022/08/25 13:17:09;;;;;;;6.45;3.03;;;;;;;;;;7393646;19;19998;-75
2022/08/25 13:19:35;;;;;;;7.43;3.63;;;;;;;;;;7394301;19;20030;-75
2022/08/25 13:22:08;;;;;;;7.93;3.13;;;;;;;;;;7393414;19;19994;-76
2022/08/25 13:24:40;;;;;;;9.00;3.30;;;;;;;;;;7394149;19;20024;-75
2022/08/25 13:27:09;;;;;;;4.63;3.28;;;;;;;;;;7397035;19;20267;-76
2022/08/25 13:29:50;;;;;;;6.70;3.10;;;;;;;;;;7397949;19;20002;-76
2022/08/25 13:32:23;;;;;;;6.28;3.53;;;;;;;;;;7394732;19;19999;-76
2022/08/25 13:34:48;;;;;;;8.88;3.28;;;;;;;;;;7392949;19;20083;-75
2022/08/25 13:37:26;;;;;;;9.15;3.28;;;;;;;;;;7395422;19;19998;-76
2022/08/25 13:40:17;;;;;;;4.03;3.33;;;;;;;;;;7396277;19;20170;-76
2022/08/25 13:42:46;;;;;;;7.65;3.20;;;;;;;;;;7397745;19;19994;-75
2022/08/25 13:45:15;;;;;;;5.65;2.97;;;;;;;;;;7393914;19;19998;-76
2022/08/25 13:47:41;;;;;;;8.73;3.15;;;;;;;;;;7394750;19;20372;-75
2022/08/25 13:50:25;;;;;;;6.28;3.08;;;;;;;;;;7397816;19;20002;-76
2022/08/25 13:52:55;;;;;;;8.68;3.45;;;;;;;;;;7394041;19;20007;-76
2022/08/25 13:55:32;;;;;;;5.95;3.38;;;;;;;;;;7392443;19;20001;-75
2022/08/25 13:57:59;;;;;;;8.98;3.47;;;;;;;;;;7391124;19;20014;-77
2022/08/25 14:00:46;;;;;;;4.10;2.95;;;;;;;;;;7396571;19;20006;-76
2022/08/25 14:03:32;;;;;;;9.10;3.47;;;;;;;;;;7393197;19;20026;-75
2022/08/25 14:06:25;;;;;;;7.47;3.25;;;;;;;;;;7396109;19;21128;-75
2022/08/25 14:08:59;;;;;;;5.82;3.20;;;;;;;;;;7394664;19;20010;-77
2022/08/25 14:11:43;;;;;;;;;;;;;;;;;;7394330;19;20535;-75
2022/08/25 14:14:22;;;;;;;6.57;2.85;;;;;;;;;;7393103;19;19925;-76
2022/08/25 14:16:50;;;;;;;10.98;3.20;;;;;;;;;;7390683;19;20002;-76
2022/08/25 14:19:22;;;;;;;10.25;3.60;;;;;;;;;;7392810;19;19987;-76
2022/08/25 14:21:47;;;;;;;6.78;3.05;;;;;;;;;;7394267;19;20014;-76
2022/08/25 14:24:17;;;;;;;9.80;3.58;;;;;;;;;;7397251;19;20048;-76
2022/08/25 14:26:44;;;;;;;9.70;2.83;;;;;;;;;;7393800;19;20379;-76
2022/08/25 14:29:10;;;;;;;9.82;2.92;;;;;;;;;;7396655;19;20006;-76
2022/08/25 14:31:39;;;;;;;8.90;3.35;;;;;;;;;;7392831;19;20007;-77
2022/08/25 14:34:08;;;;;;;9.25;3.30;;;;;;;;;;7392986;19;20006;-76
2022/08/25 14:36:34;;;;;;;12.20;5.63;;;;;;;;;;7395585;19;20009;-76
2022/08/25 14:39:04;;;;;;;9.98;4.03;;;;;;;;;;7394325;19;19991;-77
2022/08/25 14:41:33;;;;;;;5.60;2.92;;;;;;;;;;7393549;19;19998;-77
2022/08/25 14:43:59;;;;;;;7.13;3.35;;;;;;;;;;7392976;19;19999;-77
2022/08/25 14:46:27;;;;;;;11.75;3.83;;;;;;;;;;7391945;19;20030;-76
2022/08/25 14:48:58;;;;;;;8.07;3.45;;;;;;;;;;7393264;19;20010;-76
2022/08/25 14:51:25;;;;;;;5.65;2.97;;;;;;;;;;7395832;19;20429;-77
2022/08/25 14:53:53;;;;;;;9.23;3.30;;;;;;;;;;7391493;19;20469;-76
2022/08/25 14:56:19;;;;;;;15.15;3.70;;;;;;;;;;7391789;19;20003;-76
2022/08/25 14:58:44;;;;;;;9.73;3.70;;;;;;;;;;7393338;19;20013;-76
2022/08/25 15:01:14;;;;;;;10.60;3.20;;;;;;;;;;7396697;19;19995;-77
2022/08/25 15:03:43;;;;;;;11.00;3.15;;;;;;;;;;7388676;19;20105;-76
2022/08/25 15:06:15;;;;;;;9.85;2.65;;;;;;;;;;7391460;19;20032;-76
2022/08/25 15:11:28;;;;;;;7.30;2.97;;;;;;;;;;7391429;19;20014;-76
2022/08/25 15:13:53;;;;;;;7.47;3.95;;;;;;;;;;7389467;19;20014;-75
2022/08/25 15:16:33;;;;;;;13.00;3.47;;;;;;;;;;7393374;19;20016;-76